createdAt,value
2019-01-18T00:00:48.628Z,138.90
2019-01-18T00:03:42.689Z,141.90
2019-01-18T00:06:37.045Z,140.23
2019-01-18T00:09:31.574Z,137.70
2019-01-18T00:12:25.778Z,139.33
2019-01-18T00:15:20.737Z,144.73
2019-01-18T00:18:15.417Z,151.90
2019-01-18T00:21:09.577Z,147.83
2019-01-18T00:24:03.824Z,143.03
2019-01-18T00:26:58.347Z,137.73
2019-01-18T00:29:52.971Z,134.90
2019-01-18T00:32:47.537Z,139.17
2019-01-18T00:35:41.874Z,137.00
2019-01-18T00:38:36.228Z,141.37
2019-01-18T00:41:31.031Z,139.60
2019-01-18T00:44:25.630Z,137.73
2019-01-18T00:47:19.973Z,137.10
2019-01-18T00:50:16.817Z,135.53
2019-01-18T00:53:11.369Z,138.00
2019-01-18T00:56:05.626Z,131.90
2019-01-18T00:59:00.082Z,137.37
2019-01-18T01:01:54.645Z,133.20
2019-01-18T01:04:49.205Z,132.37
2019-01-18T01:07:44.075Z,129.60
2019-01-18T01:10:38.510Z,132.10
2019-01-18T01:13:33.184Z,130.60
2019-01-18T01:16:27.520Z,125.33
2019-01-18T01:19:21.878Z,128.80
2019-01-18T01:22:16.459Z,126.47
2019-01-18T01:25:11.377Z,127.47
2019-01-18T01:28:05.603Z,123.23
2019-01-18T01:30:59.958Z,127.67
2019-01-18T01:33:54.349Z,122.47
2019-01-18T01:36:49.005Z,131.00
2019-01-18T01:39:43.777Z,128.13
2019-01-18T01:42:39.922Z,131.17
2019-01-18T01:45:34.675Z,135.30
2019-01-18T01:48:29.400Z,127.77
2019-01-18T01:51:24.142Z,127.40
2019-01-18T01:54:18.934Z,129.03
2019-01-18T01:57:13.337Z,135.03
2019-01-18T02:00:09.602Z,138.47
2019-01-18T02:03:04.428Z,148.93
2019-01-18T02:06:00.143Z,152.77
2019-01-18T02:08:54.948Z,146.30
2019-01-18T02:11:49.712Z,146.97
2019-01-18T02:14:44.003Z,144.63
2019-01-18T02:17:38.916Z,142.00
2019-01-18T02:20:33.981Z,138.67
2019-01-18T02:23:28.565Z,135.40
2019-01-18T02:26:23.086Z,135.10
2019-01-18T02:29:17.575Z,134.73
2019-01-18T02:32:11.829Z,128.83
2019-01-18T02:35:06.098Z,128.50
2019-01-18T02:38:00.508Z,126.07
2019-01-18T02:40:54.902Z,127.30
2019-01-18T02:43:49.383Z,125.87
2019-01-18T02:46:43.812Z,123.00
2019-01-18T02:49:38.339Z,125.23
2019-01-18T02:52:32.675Z,109.67
2019-01-18T02:55:28.971Z,103.40
2019-01-18T02:58:24.094Z,112.93
2019-01-18T03:01:18.652Z,120.53
2019-01-18T03:04:12.969Z,114.23
2019-01-18T03:07:07.413Z,115.17
2019-01-18T03:10:02.191Z,100.30
2019-01-18T03:12:56.708Z,102.33
2019-01-18T03:15:52.224Z,103.67
2019-01-18T03:18:47.556Z,92.87
2019-01-18T03:21:42.470Z,103.00
2019-01-18T03:24:37.278Z,102.37
2019-01-18T03:27:32.382Z,105.93
2019-01-18T03:30:26.900Z,108.63
2019-01-18T03:33:21.401Z,103.47
2019-01-18T03:36:16.302Z,109.17
2019-01-18T03:39:13.222Z,101.47
2019-01-18T03:42:07.813Z,98.17
2019-01-18T03:45:02.518Z,95.23
2019-01-18T03:47:57.264Z,98.77
2019-01-18T03:50:52.177Z,96.53
2019-01-18T03:53:47.249Z,97.97
2019-01-18T03:56:41.883Z,83.10
2019-01-18T03:59:36.901Z,92.67
2019-01-18T04:02:31.453Z,96.47
2019-01-18T04:05:26.103Z,83.07
2019-01-18T04:08:20.690Z,95.17
2019-01-18T04:11:15.310Z,87.30
2019-01-18T04:14:09.659Z,94.23
2019-01-18T04:17:04.154Z,82.30
2019-01-18T04:19:58.874Z,79.43
2019-01-18T04:22:53.484Z,86.90
2019-01-18T04:25:49.582Z,93.77
2019-01-18T04:28:45.495Z,90.03
2019-01-18T04:31:40.431Z,86.90
2019-01-18T04:34:35.069Z,91.00
2019-01-18T04:37:29.949Z,84.50
2019-01-18T04:40:26.707Z,79.90
2019-01-18T04:43:21.916Z,80.20
2019-01-18T04:46:17.400Z,76.63
2019-01-18T04:49:12.178Z,75.13
2019-01-18T04:52:07.028Z,71.10
2019-01-18T04:55:02.237Z,67.23
2019-01-18T04:57:57.257Z,62.20
2019-01-18T05:00:51.918Z,57.67
2019-01-18T05:03:47.343Z,54.63
2019-01-18T05:06:42.683Z,56.47
2019-01-18T05:09:37.638Z,48.03
2019-01-18T05:12:33.306Z,53.63
2019-01-18T05:15:34.170Z,54.97
2019-01-18T05:18:29.656Z,54.47
2019-01-18T05:21:25.387Z,54.87
2019-01-18T05:24:21.920Z,45.07
2019-01-18T05:27:53.856Z,51.13
2019-01-18T05:30:51.146Z,50.50
2019-01-18T05:33:48.766Z,47.20
2019-01-18T05:36:46.601Z,50.50
2019-01-18T05:39:41.784Z,42.90
2019-01-18T05:42:36.769Z,45.73
2019-01-18T05:45:31.744Z,46.30
2019-01-18T05:48:26.155Z,45.47
2019-01-18T05:51:20.781Z,42.23
2019-01-18T05:54:18.307Z,39.80
2019-01-18T05:57:13.526Z,38.40
2019-01-18T06:00:17.880Z,38.33
2019-01-18T06:03:14.609Z,36.93
2019-01-18T06:06:14.470Z,37.53
2019-01-18T06:09:11.546Z,37.37
2019-01-18T06:12:08.257Z,38.33
2019-01-18T06:15:03.420Z,38.20
2019-01-18T06:17:58.660Z,35.47
2019-01-18T06:20:53.701Z,37.60
2019-01-18T06:23:49.034Z,39.13
2019-01-18T06:26:50.532Z,38.30
2019-01-18T06:29:56.621Z,40.20
2019-01-18T06:33:19.277Z,41.17
2019-01-18T06:36:53.968Z,39.93
2019-01-18T06:39:52.104Z,38.77
2019-01-18T06:42:48.321Z,36.83
2019-01-18T06:45:49.213Z,39.60
2019-01-18T06:48:46.138Z,42.00
2019-01-18T06:51:41.747Z,39.40
2019-01-18T06:54:53.044Z,42.63
2019-01-18T06:57:55.000Z,41.03
2019-01-18T07:00:54.929Z,45.07
2019-01-18T07:03:50.024Z,39.03
2019-01-18T07:06:48.643Z,41.30
2019-01-18T07:09:57.910Z,40.63
2019-01-18T07:12:55.441Z,42.50
2019-01-18T07:15:53.285Z,42.07
2019-01-18T07:18:49.241Z,39.83
2019-01-18T07:21:51.167Z,41.93
2019-01-18T07:24:58.066Z,44.93
2019-01-18T07:27:57.609Z,45.87
2019-01-18T07:31:15.090Z,46.07
2019-01-18T07:34:17.982Z,45.13
2019-01-18T07:37:31.930Z,44.83
2019-01-18T07:40:30.861Z,45.90
2019-01-18T07:43:33.009Z,43.43
2019-01-18T07:46:42.125Z,44.00
2019-01-18T07:50:09.034Z,43.77
2019-01-18T07:53:11.873Z,40.87
2019-01-18T07:56:11.008Z,44.17
2019-01-18T07:59:10.882Z,40.50
2019-01-18T08:02:09.678Z,42.00
2019-01-18T08:05:11.517Z,44.83
2019-01-18T08:08:41.622Z,43.50
2019-01-18T08:11:57.605Z,48.30
2019-01-18T08:14:56.006Z,51.33
2019-01-18T08:17:51.937Z,52.90
2019-01-18T08:20:47.441Z,48.70
2019-01-18T08:23:48.312Z,59.10
2019-01-18T08:26:54.483Z,65.53
2019-01-18T08:29:53.103Z,68.53
2019-01-18T08:32:50.853Z,58.30
2019-01-18T08:35:52.004Z,51.87
2019-01-18T08:38:49.450Z,46.70
2019-01-18T08:41:50.711Z,53.60
2019-01-18T08:44:53.573Z,54.33
2019-01-18T08:47:59.815Z,56.23
2019-01-18T08:50:55.831Z,67.25
2019-01-18T08:53:54.681Z,64.10
2019-01-18T08:56:53.458Z,48.87
2019-01-18T08:59:54.579Z,54.87
2019-01-18T09:02:54.267Z,44.63
2019-01-18T09:05:57.222Z,55.73
2019-01-18T09:09:05.349Z,55.77
2019-01-18T09:12:02.134Z,57.40
2019-01-18T09:14:58.795Z,66.17
2019-01-18T09:21:16.303Z,61.25
2019-01-18T09:24:12.946Z,55.23
2019-01-18T09:27:08.189Z,51.97
2019-01-18T09:30:03.233Z,48.00
2019-01-18T09:33:16.208Z,46.30
2019-01-18T09:36:16.651Z,36.80
2019-01-18T09:39:16.072Z,32.53
2019-01-18T09:42:11.094Z,38.83
2019-01-18T09:45:07.493Z,39.77
2019-01-18T09:48:04.656Z,38.33
2019-01-18T09:51:11.257Z,39.37
2019-01-18T09:54:07.074Z,36.63
2019-01-18T09:57:04.095Z,35.90
2019-01-18T10:00:03.421Z,34.43
2019-01-18T10:03:03.926Z,31.33
2019-01-18T10:06:00.142Z,32.30
2019-01-18T10:08:56.244Z,32.77
2019-01-18T10:11:51.435Z,34.87
2019-01-18T10:15:13.853Z,33.53
2019-01-18T10:18:16.671Z,33.10
2019-01-18T10:21:19.394Z,30.30
2019-01-18T10:24:15.875Z,31.57
2019-01-18T10:27:26.350Z,30.17
2019-01-18T10:30:45.948Z,30.40
2019-01-18T10:33:44.942Z,30.47
2019-01-18T10:36:39.846Z,30.07
2019-01-18T10:39:34.600Z,28.87
2019-01-18T10:42:32.517Z,29.10
2019-01-18T10:45:27.151Z,28.57
2019-01-18T10:48:23.801Z,27.20
2019-01-18T10:51:20.304Z,27.53
2019-01-18T10:54:14.838Z,28.17
2019-01-18T10:57:09.657Z,26.87
2019-01-18T11:00:04.878Z,26.57
2019-01-18T11:02:59.614Z,25.40
2019-01-18T11:06:33.870Z,27.10
2019-01-18T11:09:23.168Z,26.03
2019-01-18T11:12:17.498Z,25.73
2019-01-18T11:15:14.853Z,25.60
2019-01-18T11:18:10.150Z,25.30
2019-01-18T11:21:14.293Z,26.80
2019-01-18T11:24:10.288Z,25.53
2019-01-18T11:27:04.913Z,25.47
2019-01-18T11:30:01.211Z,24.50
2019-01-18T11:32:57.625Z,24.30
2019-01-18T11:36:05.100Z,23.47
2019-01-18T11:38:58.733Z,23.63
2019-01-18T11:41:55.714Z,22.87
2019-01-18T11:44:52.806Z,24.10
2019-01-18T11:47:47.191Z,23.77
2019-01-18T11:50:42.144Z,23.30
2019-01-18T11:53:40.859Z,22.83
2019-01-18T11:56:38.272Z,22.57
2019-01-18T11:59:36.337Z,23.50
2019-01-18T12:02:35.613Z,23.37
2019-01-18T12:05:37.574Z,23.53
2019-01-18T12:08:35.275Z,21.57
2019-01-18T12:11:32.285Z,21.73
2019-01-18T12:14:29.718Z,22.70
2019-01-18T12:17:26.677Z,21.83
2019-01-18T12:20:27.475Z,22.20
2019-01-18T12:23:21.927Z,22.70
2019-01-18T12:26:17.127Z,21.90
2019-01-18T12:29:12.885Z,22.00
2019-01-18T12:32:09.710Z,21.40
2019-01-18T12:35:05.145Z,21.97
2019-01-18T12:38:00.018Z,22.23
2019-01-18T12:40:55.466Z,22.37
2019-01-18T12:43:50.552Z,21.87
2019-01-18T12:46:45.472Z,21.27
2019-01-18T12:49:40.538Z,27.02
2019-01-18T12:52:35.594Z,23.40
2019-01-18T12:55:29.808Z,29.33
2019-01-18T12:58:26.256Z,33.53
2019-01-18T13:01:29.144Z,32.93
2019-01-18T13:04:24.744Z,38.47
2019-01-18T13:07:19.563Z,35.77
2019-01-18T13:10:15.980Z,34.63
2019-01-18T13:13:10.559Z,33.03
2019-01-18T13:16:30.986Z,33.93
2019-01-18T13:19:27.871Z,33.47
2019-01-18T13:22:26.007Z,33.63
2019-01-18T13:25:18.361Z,33.13
2019-01-18T13:28:13.450Z,32.87
2019-01-18T13:31:08.922Z,33.70
2019-01-18T13:34:03.427Z,33.63
2019-01-18T13:36:58.258Z,34.00
2019-01-18T13:39:53.048Z,35.03
2019-01-18T13:42:50.286Z,38.40
2019-01-18T13:45:45.410Z,41.70
2019-01-18T13:48:40.158Z,38.77
2019-01-18T13:51:35.848Z,42.53
2019-01-18T13:54:31.996Z,44.63
2019-01-18T13:57:27.355Z,44.97
2019-01-18T14:00:22.934Z,45.67
2019-01-18T14:03:18.063Z,44.43
2019-01-18T14:06:13.224Z,45.73
2019-01-18T14:09:11.101Z,50.90
2019-01-18T14:12:06.234Z,51.07
2019-01-18T14:15:01.378Z,50.97
2019-01-18T14:17:56.805Z,50.30
2019-01-18T14:20:53.254Z,46.97
2019-01-18T14:23:48.305Z,45.83
2019-01-18T14:26:43.512Z,48.93
2019-01-18T14:29:40.914Z,47.50
2019-01-18T14:32:36.022Z,48.40
2019-01-18T14:35:33.197Z,46.23
2019-01-18T14:38:28.427Z,48.50
2019-01-18T14:41:31.477Z,60.07
2019-01-18T14:44:26.026Z,65.60
2019-01-18T14:47:20.817Z,48.33
2019-01-18T14:50:18.306Z,55.10
2019-01-18T14:53:13.354Z,52.20
2019-01-18T14:56:07.669Z,52.93
2019-01-18T14:59:03.350Z,54.90
2019-01-18T15:02:06.026Z,54.30
2019-01-18T15:04:56.516Z,65.47
2019-01-18T15:07:51.610Z,55.47
2019-01-18T15:10:46.735Z,54.13
2019-01-18T15:13:41.663Z,60.63
2019-01-18T15:16:38.623Z,83.70
2019-01-18T15:19:33.455Z,65.07
2019-01-18T15:22:28.046Z,84.20
2019-01-18T15:25:26.474Z,76.33
2019-01-18T15:28:21.733Z,58.73
2019-01-18T15:31:16.742Z,84.50
2019-01-18T15:34:11.243Z,89.57
2019-01-18T15:37:05.672Z,58.10
2019-01-18T15:40:02.084Z,73.77
2019-01-18T15:43:10.511Z,70.03
2019-01-18T15:46:05.090Z,80.23
2019-01-18T15:49:00.118Z,88.90
2019-01-18T15:51:57.167Z,67.37
2019-01-18T15:54:52.078Z,76.90
2019-01-18T15:57:47.169Z,68.33
2019-01-18T16:00:44.234Z,76.67
2019-01-18T16:03:39.074Z,76.07
2019-01-18T16:06:34.550Z,66.70
2019-01-18T16:09:30.392Z,62.83
2019-01-18T16:12:27.350Z,65.43
2019-01-18T16:15:23.074Z,63.07
2019-01-18T16:18:19.244Z,71.17
2019-01-18T16:21:14.011Z,86.87
2019-01-18T16:24:09.163Z,67.47
2019-01-18T16:27:04.025Z,73.77
2019-01-18T16:29:58.828Z,65.97
2019-01-18T16:32:55.366Z,101.73
2019-01-18T16:35:51.179Z,91.23
2019-01-18T16:38:45.886Z,77.50
2019-01-18T16:41:42.038Z,70.93
2019-01-18T16:44:37.300Z,70.47
2019-01-18T16:47:35.587Z,81.43
2019-01-18T16:50:30.450Z,77.17
2019-01-18T16:53:25.910Z,71.97
2019-01-18T16:56:23.025Z,68.73
2019-01-18T16:59:17.566Z,88.03
2019-01-18T17:02:12.094Z,90.30
2019-01-18T17:05:07.109Z,79.37
2019-01-18T17:08:03.177Z,82.37
2019-01-18T17:10:58.741Z,79.17
2019-01-18T17:13:53.990Z,81.20
2019-01-18T17:16:50.636Z,88.47
2019-01-18T17:19:45.512Z,84.53
2019-01-18T17:22:40.640Z,77.83
2019-01-18T17:25:36.037Z,79.37
2019-01-18T17:28:34.724Z,86.00
2019-01-18T17:31:29.932Z,89.73
2019-01-18T17:34:24.982Z,89.30
2019-01-18T17:37:34.388Z,81.47
2019-01-18T17:40:40.620Z,91.00
2019-01-18T17:44:27.377Z,92.87
2019-01-18T17:48:01.868Z,87.47
2019-01-18T17:51:44.588Z,75.00
2019-01-18T17:55:28.762Z,78.37
2019-01-18T17:59:01.140Z,78.23
2019-01-18T18:02:32.059Z,79.00
2019-01-18T18:05:58.596Z,108.27
2019-01-18T18:09:12.636Z,79.70
2019-01-18T18:12:36.560Z,90.17
2019-01-18T18:15:51.502Z,85.70
2019-01-18T18:19:31.226Z,99.87
2019-01-18T18:23:15.240Z,92.93
2019-01-18T18:26:44.825Z,78.20
2019-01-18T18:30:10.656Z,89.17
2019-01-18T18:33:40.317Z,96.63
2019-01-18T18:37:04.070Z,85.23
2019-01-18T18:40:25.149Z,90.57
2019-01-18T18:43:46.876Z,78.23
2019-01-18T18:47:27.170Z,86.33
2019-01-18T18:50:56.653Z,98.03
2019-01-18T18:54:26.345Z,86.40
2019-01-18T18:58:03.737Z,115.10
2019-01-18T19:01:52.808Z,97.03
2019-01-18T19:05:13.738Z,91.57
2019-01-18T19:08:49.467Z,103.93
2019-01-18T19:12:48.004Z,114.80
2019-01-18T19:16:14.527Z,100.30
2019-01-18T19:19:59.382Z,118.23
2019-01-18T19:23:21.341Z,106.47
2019-01-18T19:26:55.649Z,95.83
2019-01-18T19:30:22.217Z,105.40
2019-01-18T19:33:46.349Z,102.00
2019-01-18T19:37:22.985Z,114.30
2019-01-18T19:40:51.851Z,94.33
2019-01-18T19:44:13.506Z,93.17
2019-01-18T19:47:40.385Z,100.83
2019-01-18T19:51:17.340Z,93.30
2019-01-18T19:55:02.876Z,100.17
2019-01-18T19:58:32.270Z,99.50
2019-01-18T20:01:42.500Z,97.87
2019-01-18T20:05:19.614Z,93.50
2019-01-18T20:09:13.802Z,90.43
2019-01-18T20:12:33.463Z,99.80
2019-01-18T20:15:57.248Z,95.87
2019-01-18T20:19:35.581Z,95.10
2019-01-18T20:22:54.671Z,88.93
2019-01-18T20:26:19.148Z,89.20
2019-01-18T20:29:46.700Z,91.37
2019-01-18T20:33:09.625Z,85.93
2019-01-18T20:36:18.269Z,90.00
2019-01-18T20:39:54.742Z,86.97
2019-01-18T20:43:26.502Z,88.87
2019-01-18T20:47:06.099Z,88.77
2019-01-18T20:50:55.261Z,91.57
2019-01-18T20:54:05.380Z,91.40
2019-01-18T20:58:00.219Z,89.13
2019-01-18T21:01:11.498Z,85.17
2019-01-18T21:04:43.678Z,87.27
2019-01-18T21:08:26.949Z,86.40
2019-01-18T21:11:35.757Z,84.67
2019-01-18T21:15:11.000Z,84.23
2019-01-18T21:18:32.907Z,84.83
2019-01-18T21:22:01.938Z,79.27
2019-01-18T21:25:23.509Z,82.40
2019-01-18T21:28:52.209Z,81.90
2019-01-18T21:32:29.479Z,80.37
2019-01-18T21:36:11.609Z,77.80
2019-01-18T21:39:57.982Z,76.93
2019-01-18T21:43:17.801Z,80.37
2019-01-18T21:46:34.319Z,79.00
2019-01-18T21:50:17.246Z,75.97
2019-01-18T21:53:39.548Z,76.03
2019-01-18T21:57:09.887Z,74.37
2019-01-18T22:00:58.566Z,74.27
2019-01-18T22:04:25.721Z,72.20
2019-01-18T22:07:55.665Z,66.73
2019-01-18T22:11:40.376Z,71.63
2019-01-18T22:15:00.316Z,70.70
2019-01-18T22:18:18.659Z,68.43
2019-01-18T22:21:28.400Z,66.10
2019-01-18T22:24:59.452Z,66.77
2019-01-18T22:28:25.273Z,66.47
2019-01-18T22:32:05.485Z,66.73
2019-01-18T22:35:14.974Z,67.07
2019-01-18T22:38:43.879Z,65.47
2019-01-18T22:42:09.881Z,65.43
2019-01-18T22:45:30.890Z,67.40
2019-01-18T22:49:00.649Z,63.73
2019-01-18T22:52:14.715Z,63.17
2019-01-18T22:55:50.652Z,63.27
2019-01-18T22:59:23.234Z,63.60
2019-01-18T23:02:48.658Z,60.57
2019-01-18T23:06:14.695Z,64.47
2019-01-18T23:09:46.847Z,60.13
2019-01-18T23:13:06.363Z,62.43
2019-01-18T23:16:33.220Z,64.17
2019-01-18T23:19:52.967Z,63.97
2019-01-18T23:23:25.802Z,62.13
2019-01-18T23:26:44.715Z,63.43
2019-01-18T23:29:54.136Z,60.50
2019-01-18T23:33:36.618Z,62.53
2019-01-18T23:37:04.049Z,63.73
2019-01-18T23:40:26.444Z,62.20
2019-01-18T23:43:43.333Z,62.10
2019-01-18T23:47:11.483Z,60.80
2019-01-18T23:50:40.143Z,58.70
2019-01-18T23:53:56.574Z,56.87
2019-01-18T23:57:22.501Z,56.93
